Du har inga inställningar för hoppväder.nu

Hoppväder.nu

Senast uppdaterat 03:41

UTC-tid

2021-10-25 kl. 01:41


Sol och måne

Solen går upp 8:15 och går ner 18:08 (beräknade cirkatider)
Nästa fullmåne blir om 25 dagar (2021-11-19)

METAR

ESSD (Borlänge)
(21 minuter sedan)
ESSD 250120Z AUTO 23013KT 9999 BKN016/// OVC055/// 09/06 Q1012=



ESOE (Örebro)
(21 minuter sedan)
ESOE 250120Z AUTO 20006KT 9999 NCD 06/03 Q1016=



ESOW (Västerås)
(21 minuter sedan)
ESOW 250120Z AUTO 21012KT 9999 OVC064/// 09/04 Q1016=



ESOK (Karlstad)
(21 minuter sedan)
ESOK 250120Z AUTO 19007KT 9999 FEW013/// 08/07 Q1014=






TAF

ESSD (Borlänge)
ESSD



ESOE (Örebro)
(1571 minuter sedan)
ESOE 242330Z 2500/2508 20012KT 9999 SCT045=



ESOW (Västerås)
ESOW



ESOK (Karlstad)
ESOK





Kodnycklar till TAF och METAR






LHP

(Borlänge är område se34c i Delområde 1)

Prognos är inte uppdaterad






Preliminär prognos